sensor_id;sensor_type;location;lat;lon;timestamp;temperature;humidity
20057;DHT22;10189;49.546;7.906;2024-03-02T00:00:51;1.00;99.90
20057;DHT22;10189;49.546;7.906;2024-03-02T00:03:19;0.90;99.90
20057;DHT22;10189;49.546;7.906;2024-03-02T00:06:18;0.90;99.90
20057;DHT22;10189;49.546;7.906;2024-03-02T00:08:47;0.70;99.90
20057;DHT22;10189;49.546;7.906;2024-03-02T00:12:02;0.70;99.90
20057;DHT22;10189;49.546;7.906;2024-03-02T00:15:00;0.70;99.90
20057;DHT22;10189;49.546;7.906;2024-03-02T00:17:29;0.70;99.90
20057;DHT22;10189;49.546;7.906;2024-03-02T00:19:55;0.70;99.90
20057;DHT22;10189;49.546;7.906;2024-03-02T00:22:21;0.70;99.90
20057;DHT22;10189;49.546;7.906;2024-03-02T00:24:47;0.80;99.90
20057;DHT22;10189;49.546;7.906;2024-03-02T00:27:15;0.80;99.90
20057;DHT22;10189;49.546;7.906;2024-03-02T00:29:43;0.80;99.90
20057;DHT22;10189;49.546;7.906;2024-03-02T00:32:12;0.80;99.90
20057;DHT22;10189;49.546;7.906;2024-03-02T00:34:41;0.90;99.90
20057;DHT22;10189;49.546;7.906;2024-03-02T00:37:07;0.90;99.90
20057;DHT22;10189;49.546;7.906;2024-03-02T00:39:34;0.80;99.90
20057;DHT22;10189;49.546;7.906;2024-03-02T00:42:00;0.80;99.90
20057;DHT22;10189;49.546;7.906;2024-03-02T00:44:26;0.80;99.90
20057;DHT22;10189;49.546;7.906;2024-03-02T00:46:52;0.80;99.90
20057;DHT22;10189;49.546;7.906;2024-03-02T00:49:21;0.80;99.90
20057;DHT22;10189;49.546;7.906;2024-03-02T00:51:50;0.70;99.90
20057;DHT22;10189;49.546;7.906;2024-03-02T00:54:23;0.70;99.90
20057;DHT22;10189;49.546;7.906;2024-03-02T00:56:51;0.70;99.90
20057;DHT22;10189;49.546;7.906;2024-03-02T00:59:21;0.60;99.90
20057;DHT22;10189;49.546;7.906;2024-03-02T01:01:48;0.60;99.90
20057;DHT22;10189;49.546;7.906;2024-03-02T01:04:15;0.60;99.90
20057;DHT22;10189;49.546;7.906;2024-03-02T01:06:44;0.60;99.90
20057;DHT22;10189;49.546;7.906;2024-03-02T01:09:11;0.60;99.90
20057;DHT22;10189;49.546;7.906;2024-03-02T01:11:37;0.70;99.90
20057;DHT22;10189;49.546;7.906;2024-03-02T01:14:04;0.60;99.90
20057;DHT22;10189;49.546;7.906;2024-03-02T01:16:30;0.60;99.90
20057;DHT22;10189;49.546;7.906;2024-03-02T01:18:56;0.60;99.90
20057;DHT22;10189;49.546;7.906;2024-03-02T01:21:21;0.50;99.90
20057;DHT22;10189;49.546;7.906;2024-03-02T01:23:47;0.50;99.90
20057;DHT22;10189;49.546;7.906;2024-03-02T01:26:13;0.50;99.90
20057;DHT22;10189;49.546;7.906;2024-03-02T01:28:39;0.50;99.90
20057;DHT22;10189;49.546;7.906;2024-03-02T01:31:05;0.60;99.90
20057;DHT22;10189;49.546;7.906;2024-03-02T01:33:31;0.70;99.90
20057;DHT22;10189;49.546;7.906;2024-03-02T01:35:57;0.70;99.90
20057;DHT22;10189;49.546;7.906;2024-03-02T01:38:22;0.70;99.90
20057;DHT22;10189;49.546;7.906;2024-03-02T01:40:48;0.80;99.90
20057;DHT22;10189;49.546;7.906;2024-03-02T01:43:14;0.90;99.90
20057;DHT22;10189;49.546;7.906;2024-03-02T01:45:40;1.00;99.90
20057;DHT22;10189;49.546;7.906;2024-03-02T01:48:06;1.00;99.90
20057;DHT22;10189;49.546;7.906;2024-03-02T01:50:33;1.00;99.90
20057;DHT22;10189;49.546;7.906;2024-03-02T01:53:00;1.00;99.90
20057;DHT22;10189;49.546;7.906;2024-03-02T01:55:28;1.00;99.90
20057;DHT22;10189;49.546;7.906;2024-03-02T01:57:58;0.90;99.90
20057;DHT22;10189;49.546;7.906;2024-03-02T02:00:24;0.90;99.90
20057;DHT22;10189;49.546;7.906;2024-03-02T02:02:52;1.00;99.90
20057;DHT22;10189;49.546;7.906;2024-03-02T02:05:18;1.10;99.90
20057;DHT22;10189;49.546;7.906;2024-03-02T02:07:44;1.10;99.90
20057;DHT22;10189;49.546;7.906;2024-03-02T02:10:10;1.30;99.90
20057;DHT22;10189;49.546;7.906;2024-03-02T02:12:37;1.40;99.90
20057;DHT22;10189;49.546;7.906;2024-03-02T02:15:04;1.40;99.90
20057;DHT22;10189;49.546;7.906;2024-03-02T02:17:47;1.50;99.90
20057;DHT22;10189;49.546;7.906;2024-03-02T02:20:13;1.50;99.90
20057;DHT22;10189;49.546;7.906;2024-03-02T02:22:39;1.50;99.90
20057;DHT22;10189;49.546;7.906;2024-03-02T02:25:05;1.40;99.90
20057;DHT22;10189;49.546;7.906;2024-03-02T02:27:31;1.50;99.90
20057;DHT22;10189;49.546;7.906;2024-03-02T02:29:57;1.70;99.90
20057;DHT22;10189;49.546;7.906;2024-03-02T02:32:23;1.80;99.90
20057;DHT22;10189;49.546;7.906;2024-03-02T02:34:52;2.10;99.90
20057;DHT22;10189;49.546;7.906;2024-03-02T02:37:18;2.20;99.90
20057;DHT22;10189;49.546;7.906;2024-03-02T02:39:44;2.40;99.90
20057;DHT22;10189;49.546;7.906;2024-03-02T02:42:12;2.50;99.90
20057;DHT22;10189;49.546;7.906;2024-03-02T02:44:38;2.60;99.90
20057;DHT22;10189;49.546;7.906;2024-03-02T02:47:03;2.80;99.90
20057;DHT22;10189;49.546;7.906;2024-03-02T02:49:31;2.80;99.90
20057;DHT22;10189;49.546;7.906;2024-03-02T02:51:57;2.80;99.90
20057;DHT22;10189;49.546;7.906;2024-03-02T02:54:22;2.90;99.90
20057;DHT22;10189;49.546;7.906;2024-03-02T02:56:48;2.90;99.90
20057;DHT22;10189;49.546;7.906;2024-03-02T02:59:14;2.90;99.90
20057;DHT22;10189;49.546;7.906;2024-03-02T03:01:40;2.90;99.90
20057;DHT22;10189;49.546;7.906;2024-03-02T03:04:06;2.90;99.90
20057;DHT22;10189;49.546;7.906;2024-03-02T03:06:32;2.90;99.90
20057;DHT22;10189;49.546;7.906;2024-03-02T03:08:59;2.90;99.90
20057;DHT22;10189;49.546;7.906;2024-03-02T03:11:24;3.00;99.90
20057;DHT22;10189;49.546;7.906;2024-03-02T03:13:52;3.00;99.90
20057;DHT22;10189;49.546;7.906;2024-03-02T03:16:20;3.00;99.90
20057;DHT22;10189;49.546;7.906;2024-03-02T03:18:46;2.90;99.90
20057;DHT22;10189;49.546;7.906;2024-03-02T03:21:12;2.90;99.90
20057;DHT22;10189;49.546;7.906;2024-03-02T03:23:38;2.90;99.90
20057;DHT22;10189;49.546;7.906;2024-03-02T03:26:04;2.80;99.90
20057;DHT22;10189;49.546;7.906;2024-03-02T03:28:30;2.70;99.90
20057;DHT22;10189;49.546;7.906;2024-03-02T03:30:55;2.60;99.90
20057;DHT22;10189;49.546;7.906;2024-03-02T03:33:21;2.60;99.90
20057;DHT22;10189;49.546;7.906;2024-03-02T03:35:48;2.50;99.90
20057;DHT22;10189;49.546;7.906;2024-03-02T03:38:16;2.50;99.90
20057;DHT22;10189;49.546;7.906;2024-03-02T03:40:42;2.60;99.90
20057;DHT22;10189;49.546;7.906;2024-03-02T03:43:09;2.50;99.90
20057;DHT22;10189;49.546;7.906;2024-03-02T03:45:35;2.50;99.90
20057;DHT22;10189;49.546;7.906;2024-03-02T03:48:04;2.40;99.90
20057;DHT22;10189;49.546;7.906;2024-03-02T03:50:30;2.40;99.90
20057;DHT22;10189;49.546;7.906;2024-03-02T03:52:57;2.30;99.90
20057;DHT22;10189;49.546;7.906;2024-03-02T03:55:24;2.30;99.90
20057;DHT22;10189;49.546;7.906;2024-03-02T03:57:51;2.30;99.90
20057;DHT22;10189;49.546;7.906;2024-03-02T04:00:17;2.30;99.90
20057;DHT22;10189;49.546;7.906;2024-03-02T04:02:44;2.30;99.90
20057;DHT22;10189;49.546;7.906;2024-03-02T04:05:09;2.30;99.90
20057;DHT22;10189;49.546;7.906;2024-03-02T04:07:36;2.30;99.90
20057;DHT22;10189;49.546;7.906;2024-03-02T04:10:07;2.30;99.90
20057;DHT22;10189;49.546;7.906;2024-03-02T04:12:37;2.30;99.90
20057;DHT22;10189;49.546;7.906;2024-03-02T04:15:05;2.20;99.90
20057;DHT22;10189;49.546;7.906;2024-03-02T04:17:33;2.20;99.90
20057;DHT22;10189;49.546;7.906;2024-03-02T04:20:00;2.10;99.90
20057;DHT22;10189;49.546;7.906;2024-03-02T04:22:27;2.10;99.90
20057;DHT22;10189;49.546;7.906;2024-03-02T04:24:53;2.10;99.90
20057;DHT22;10189;49.546;7.906;2024-03-02T04:27:19;2.10;99.90
20057;DHT22;10189;49.546;7.906;2024-03-02T04:29:45;1.90;99.90
20057;DHT22;10189;49.546;7.906;2024-03-02T04:32:11;1.80;99.90
20057;DHT22;10189;49.546;7.906;2024-03-02T04:34:37;1.80;99.90
20057;DHT22;10189;49.546;7.906;2024-03-02T04:37:03;1.80;99.90
20057;DHT22;10189;49.546;7.906;2024-03-02T04:39:29;1.70;99.90
20057;DHT22;10189;49.546;7.906;2024-03-02T04:41:54;1.70;99.90
20057;DHT22;10189;49.546;7.906;2024-03-02T04:44:20;1.70;99.90
20057;DHT22;10189;49.546;7.906;2024-03-02T04:46:46;1.80;99.90
20057;DHT22;10189;49.546;7.906;2024-03-02T04:49:12;1.80;99.90
20057;DHT22;10189;49.546;7.906;2024-03-02T04:51:38;1.90;99.90
20057;DHT22;10189;49.546;7.906;2024-03-02T04:54:04;2.00;99.90
20057;DHT22;10189;49.546;7.906;2024-03-02T04:56:30;2.20;99.90
20057;DHT22;10189;49.546;7.906;2024-03-02T04:58:59;2.40;99.90
20057;DHT22;10189;49.546;7.906;2024-03-02T05:01:25;2.60;99.90
20057;DHT22;10189;49.546;7.906;2024-03-02T05:03:51;2.70;99.90
20057;DHT22;10189;49.546;7.906;2024-03-02T05:06:18;2.90;99.90
20057;DHT22;10189;49.546;7.906;2024-03-02T05:08:45;3.10;99.90
20057;DHT22;10189;49.546;7.906;2024-03-02T05:11:13;3.00;99.90
20057;DHT22;10189;49.546;7.906;2024-03-02T05:14:14;2.90;99.90
20057;DHT22;10189;49.546;7.906;2024-03-02T05:16:40;2.90;99.90
20057;DHT22;10189;49.546;7.906;2024-03-02T05:19:07;3.00;99.90
20057;DHT22;10189;49.546;7.906;2024-03-02T05:21:34;3.30;99.90
20057;DHT22;10189;49.546;7.906;2024-03-02T05:24:00;3.50;99.90
20057;DHT22;10189;49.546;7.906;2024-03-02T05:26:27;3.70;99.90
20057;DHT22;10189;49.546;7.906;2024-03-02T05:28:53;3.80;99.90
20057;DHT22;10189;49.546;7.906;2024-03-02T05:31:19;4.00;99.90
20057;DHT22;10189;49.546;7.906;2024-03-02T05:33:45;4.20;99.90
20057;DHT22;10189;49.546;7.906;2024-03-02T05:36:12;4.20;99.90
20057;DHT22;10189;49.546;7.906;2024-03-02T05:38:38;4.30;99.90
20057;DHT22;10189;49.546;7.906;2024-03-02T05:41:04;4.40;99.90
20057;DHT22;10189;49.546;7.906;2024-03-02T05:43:30;4.50;99.90
20057;DHT22;10189;49.546;7.906;2024-03-02T05:45:56;4.50;99.90
20057;DHT22;10189;49.546;7.906;2024-03-02T05:48:22;4.50;99.90
20057;DHT22;10189;49.546;7.906;2024-03-02T05:50:48;4.60;99.90
20057;DHT22;10189;49.546;7.906;2024-03-02T05:53:15;4.60;99.90
20057;DHT22;10189;49.546;7.906;2024-03-02T05:55:41;4.60;99.90
20057;DHT22;10189;49.546;7.906;2024-03-02T05:58:07;4.70;99.90
20057;DHT22;10189;49.546;7.906;2024-03-02T06:00:51;4.80;99.90
20057;DHT22;10189;49.546;7.906;2024-03-02T06:03:18;4.80;99.90
20057;DHT22;10189;49.546;7.906;2024-03-02T06:05:44;4.80;99.90
20057;DHT22;10189;49.546;7.906;2024-03-02T06:08:10;4.80;99.90
20057;DHT22;10189;49.546;7.906;2024-03-02T06:10:36;4.90;99.90
20057;DHT22;10189;49.546;7.906;2024-03-02T06:13:03;5.00;99.90
20057;DHT22;10189;49.546;7.906;2024-03-02T06:15:29;5.00;99.90
20057;DHT22;10189;49.546;7.906;2024-03-02T06:17:55;5.10;99.90
20057;DHT22;10189;49.546;7.906;2024-03-02T06:20:22;5.00;99.90
20057;DHT22;10189;49.546;7.906;2024-03-02T06:22:48;5.10;99.90
20057;DHT22;10189;49.546;7.906;2024-03-02T06:25:14;5.10;99.90
20057;DHT22;10189;49.546;7.906;2024-03-02T06:27:40;5.10;99.90
20057;DHT22;10189;49.546;7.906;2024-03-02T06:30:06;5.10;99.90
20057;DHT22;10189;49.546;7.906;2024-03-02T06:32:33;5.10;99.90
20057;DHT22;10189;49.546;7.906;2024-03-02T06:34:59;5.20;99.90
20057;DHT22;10189;49.546;7.906;2024-03-02T06:37:25;5.20;99.90
20057;DHT22;10189;49.546;7.906;2024-03-02T06:39:51;5.20;99.90
20057;DHT22;10189;49.546;7.906;2024-03-02T06:42:17;5.30;99.90
20057;DHT22;10189;49.546;7.906;2024-03-02T06:44:43;5.40;99.90
20057;DHT22;10189;49.546;7.906;2024-03-02T06:47:09;5.40;99.90
20057;DHT22;10189;49.546;7.906;2024-03-02T06:49:35;5.50;99.90
20057;DHT22;10189;49.546;7.906;2024-03-02T06:52:00;5.50;99.90
20057;DHT22;10189;49.546;7.906;2024-03-02T06:54:26;5.50;99.90
20057;DHT22;10189;49.546;7.906;2024-03-02T06:56:52;5.60;99.70
20057;DHT22;10189;49.546;7.906;2024-03-02T06:59:18;5.70;99.20
20057;DHT22;10189;49.546;7.906;2024-03-02T07:01:44;5.80;99.00
20057;DHT22;10189;49.546;7.906;2024-03-02T07:04:10;5.90;98.20
20057;DHT22;10189;49.546;7.906;2024-03-02T07:06:35;6.00;98.00
20057;DHT22;10189;49.546;7.906;2024-03-02T07:09:01;6.10;97.40
20057;DHT22;10189;49.546;7.906;2024-03-02T07:11:27;6.10;97.10
20057;DHT22;10189;49.546;7.906;2024-03-02T07:13:53;6.20;97.20
20057;DHT22;10189;49.546;7.906;2024-03-02T07:16:19;6.30;95.90
20057;DHT22;10189;49.546;7.906;2024-03-02T07:18:55;6.30;95.30
20057;DHT22;10189;49.546;7.906;2024-03-02T07:21:22;6.40;95.20
20057;DHT22;10189;49.546;7.906;2024-03-02T07:23:49;6.50;94.40
20057;DHT22;10189;49.546;7.906;2024-03-02T07:26:15;6.60;94.40
20057;DHT22;10189;49.546;7.906;2024-03-02T07:28:42;6.70;93.20
20057;DHT22;10189;49.546;7.906;2024-03-02T07:31:09;6.80;93.60
20057;DHT22;10189;49.546;7.906;2024-03-02T07:33:35;6.90;92.80
20057;DHT22;10189;49.546;7.906;2024-03-02T07:36:01;6.90;92.70
20057;DHT22;10189;49.546;7.906;2024-03-02T07:38:31;6.90;92.20
20057;DHT22;10189;49.546;7.906;2024-03-02T07:40:59;6.90;93.00
20057;DHT22;10189;49.546;7.906;2024-03-02T07:43:25;6.80;92.90
20057;DHT22;10189;49.546;7.906;2024-03-02T07:45:52;6.80;92.20
20057;DHT22;10189;49.546;7.906;2024-03-02T07:48:18;6.90;92.20
20057;DHT22;10189;49.546;7.906;2024-03-02T07:50:44;6.90;91.70
20057;DHT22;10189;49.546;7.906;2024-03-02T07:53:10;6.90;92.00
20057;DHT22;10189;49.546;7.906;2024-03-02T07:55:37;6.90;92.50
20057;DHT22;10189;49.546;7.906;2024-03-02T07:58:02;7.00;92.20
20057;DHT22;10189;49.546;7.906;2024-03-02T08:00:29;7.10;92.90
20057;DHT22;10189;49.546;7.906;2024-03-02T08:02:55;7.30;92.70
20057;DHT22;10189;49.546;7.906;2024-03-02T08:05:21;7.50;91.70
20057;DHT22;10189;49.546;7.906;2024-03-02T08:07:47;7.80;91.30
20057;DHT22;10189;49.546;7.906;2024-03-02T08:10:18;7.80;90.30
20057;DHT22;10189;49.546;7.906;2024-03-02T08:12:45;7.90;89.20
20057;DHT22;10189;49.546;7.906;2024-03-02T08:15:11;8.00;88.90
20057;DHT22;10189;49.546;7.906;2024-03-02T08:17:39;8.10;89.00
20057;DHT22;10189;49.546;7.906;2024-03-02T08:20:14;8.20;87.80
20057;DHT22;10189;49.546;7.906;2024-03-02T08:22:40;8.30;87.90
20057;DHT22;10189;49.546;7.906;2024-03-02T08:25:07;8.40;87.50
20057;DHT22;10189;49.546;7.906;2024-03-02T08:27:33;8.40;86.40
20057;DHT22;10189;49.546;7.906;2024-03-02T08:29:59;8.60;86.80
20057;DHT22;10189;49.546;7.906;2024-03-02T08:32:25;8.70;86.80
20057;DHT22;10189;49.546;7.906;2024-03-02T08:34:51;8.80;84.50
20057;DHT22;10189;49.546;7.906;2024-03-02T08:37:17;8.90;84.90
20057;DHT22;10189;49.546;7.906;2024-03-02T08:39:44;9.00;85.10
20057;DHT22;10189;49.546;7.906;2024-03-02T08:42:10;9.20;85.10
20057;DHT22;10189;49.546;7.906;2024-03-02T08:44:36;9.30;82.60
20057;DHT22;10189;49.546;7.906;2024-03-02T08:47:03;9.50;82.20
20057;DHT22;10189;49.546;7.906;2024-03-02T08:49:29;9.50;81.70
20057;DHT22;10189;49.546;7.906;2024-03-02T08:51:55;9.40;81.80
20057;DHT22;10189;49.546;7.906;2024-03-02T08:54:21;9.30;81.50
20057;DHT22;10189;49.546;7.906;2024-03-02T08:56:50;9.40;81.20
20057;DHT22;10189;49.546;7.906;2024-03-02T08:59:16;9.60;81.30
20057;DHT22;10189;49.546;7.906;2024-03-02T09:01:43;9.70;81.20
20057;DHT22;10189;49.546;7.906;2024-03-02T09:04:09;9.70;86.00
20057;DHT22;10189;49.546;7.906;2024-03-02T09:06:35;9.70;86.80
20057;DHT22;10189;49.546;7.906;2024-03-02T09:09:00;9.70;86.80
20057;DHT22;10189;49.546;7.906;2024-03-02T09:11:26;9.60;88.00
20057;DHT22;10189;49.546;7.906;2024-03-02T09:13:53;9.50;88.80
20057;DHT22;10189;49.546;7.906;2024-03-02T09:16:20;9.30;89.10
20057;DHT22;10189;49.546;7.906;2024-03-02T09:18:46;9.10;88.60
20057;DHT22;10189;49.546;7.906;2024-03-02T09:21:12;9.10;89.30
20057;DHT22;10189;49.546;7.906;2024-03-02T09:23:38;9.10;88.90
20057;DHT22;10189;49.546;7.906;2024-03-02T09:26:05;9.40;87.40
20057;DHT22;10189;49.546;7.906;2024-03-02T09:28:31;9.60;87.40
20057;DHT22;10189;49.546;7.906;2024-03-02T09:30:57;9.60;86.20
20057;DHT22;10189;49.546;7.906;2024-03-02T09:33:23;9.70;84.70
20057;DHT22;10189;49.546;7.906;2024-03-02T09:35:49;9.70;84.40
20057;DHT22;10189;49.546;7.906;2024-03-02T09:38:15;9.70;81.90
20057;DHT22;10189;49.546;7.906;2024-03-02T09:40:42;9.80;82.20
20057;DHT22;10189;49.546;7.906;2024-03-02T09:43:09;9.80;84.10
20057;DHT22;10189;49.546;7.906;2024-03-02T09:45:35;10.00;83.20
20057;DHT22;10189;49.546;7.906;2024-03-02T09:48:02;10.20;83.00
20057;DHT22;10189;49.546;7.906;2024-03-02T09:50:28;10.20;82.00
20057;DHT22;10189;49.546;7.906;2024-03-02T09:52:54;10.10;81.90
20057;DHT22;10189;49.546;7.906;2024-03-02T09:55:20;10.00;81.60
20057;DHT22;10189;49.546;7.906;2024-03-02T09:57:46;9.90;82.70
20057;DHT22;10189;49.546;7.906;2024-03-02T10:00:14;10.00;83.40
20057;DHT22;10189;49.546;7.906;2024-03-02T10:02:41;9.90;82.70
20057;DHT22;10189;49.546;7.906;2024-03-02T10:05:08;9.90;82.20
20057;DHT22;10189;49.546;7.906;2024-03-02T10:07:35;9.80;82.30
20057;DHT22;10189;49.546;7.906;2024-03-02T10:10:13;9.80;83.50
20057;DHT22;10189;49.546;7.906;2024-03-02T10:12:40;9.80;83.50
20057;DHT22;10189;49.546;7.906;2024-03-02T10:15:07;9.80;82.10
20057;DHT22;10189;49.546;7.906;2024-03-02T10:17:34;9.70;83.20
20057;DHT22;10189;49.546;7.906;2024-03-02T10:20:22;9.70;84.00
20057;DHT22;10189;49.546;7.906;2024-03-02T10:22:51;9.70;85.50
20057;DHT22;10189;49.546;7.906;2024-03-02T10:25:32;9.70;86.00
20057;DHT22;10189;49.546;7.906;2024-03-02T10:27:59;9.40;87.80
20057;DHT22;10189;49.546;7.906;2024-03-02T10:30:26;9.40;88.40
20057;DHT22;10189;49.546;7.906;2024-03-02T10:32:54;9.20;90.50
20057;DHT22;10189;49.546;7.906;2024-03-02T10:35:22;9.20;91.70
20057;DHT22;10189;49.546;7.906;2024-03-02T10:37:49;9.20;91.10
20057;DHT22;10189;49.546;7.906;2024-03-02T10:40:16;9.40;90.20
20057;DHT22;10189;49.546;7.906;2024-03-02T10:42:42;9.40;89.50
20057;DHT22;10189;49.546;7.906;2024-03-02T10:45:12;9.50;88.60
20057;DHT22;10189;49.546;7.906;2024-03-02T10:47:42;9.60;88.20
20057;DHT22;10189;49.546;7.906;2024-03-02T10:50:09;9.80;87.90
20057;DHT22;10189;49.546;7.906;2024-03-02T10:52:36;10.10;86.80
20057;DHT22;10189;49.546;7.906;2024-03-02T10:55:03;10.40;86.10
20057;DHT22;10189;49.546;7.906;2024-03-02T10:57:53;10.60;84.20
20057;DHT22;10189;49.546;7.906;2024-03-02T11:00:24;10.80;84.00
20057;DHT22;10189;49.546;7.906;2024-03-02T11:03:05;10.90;84.10
20057;DHT22;10189;49.546;7.906;2024-03-02T11:05:34;10.80;84.60
20057;DHT22;10189;49.546;7.906;2024-03-02T11:08:13;10.70;84.20
20057;DHT22;10189;49.546;7.906;2024-03-02T11:13:22;10.30;86.00
20057;DHT22;10189;49.546;7.906;2024-03-02T11:15:59;10.10;86.90
20057;DHT22;10189;49.546;7.906;2024-03-02T11:18:45;10.00;88.10
20057;DHT22;10189;49.546;7.906;2024-03-02T11:21:13;10.10;88.50
20057;DHT22;10189;49.546;7.906;2024-03-02T11:23:45;10.10;87.40
20057;DHT22;10189;49.546;7.906;2024-03-02T11:26:22;10.00;86.40
20057;DHT22;10189;49.546;7.906;2024-03-02T11:28:53;10.10;87.20
20057;DHT22;10189;49.546;7.906;2024-03-02T11:31:22;10.20;87.50
20057;DHT22;10189;49.546;7.906;2024-03-02T11:34:32;10.40;88.00
20057;DHT22;10189;49.546;7.906;2024-03-02T11:37:03;10.30;86.40
20057;DHT22;10189;49.546;7.906;2024-03-02T11:39:30;10.40;86.10
20057;DHT22;10189;49.546;7.906;2024-03-02T11:41:57;10.50;86.70
20057;DHT22;10189;49.546;7.906;2024-03-02T11:44:27;10.50;86.10
20057;DHT22;10189;49.546;7.906;2024-03-02T11:47:00;10.70;85.40
20057;DHT22;10189;49.546;7.906;2024-03-02T11:52:08;10.90;82.50
20057;DHT22;10189;49.546;7.906;2024-03-02T11:54:38;10.80;82.70
20057;DHT22;10189;49.546;7.906;2024-03-02T11:57:08;10.90;81.70
20057;DHT22;10189;49.546;7.906;2024-03-02T11:59:35;11.00;81.70
20057;DHT22;10189;49.546;7.906;2024-03-02T12:02:01;11.30;79.30
20057;DHT22;10189;49.546;7.906;2024-03-02T12:04:29;11.50;78.20
20057;DHT22;10189;49.546;7.906;2024-03-02T12:07:01;11.60;78.00
20057;DHT22;10189;49.546;7.906;2024-03-02T12:09:28;11.70;76.20
20057;DHT22;10189;49.546;7.906;2024-03-02T12:14:31;11.90;74.70
20057;DHT22;10189;49.546;7.906;2024-03-02T12:16:58;12.00;74.20
20057;DHT22;10189;49.546;7.906;2024-03-02T12:19:27;11.90;74.80
20057;DHT22;10189;49.546;7.906;2024-03-02T12:21:59;11.80;75.80
20057;DHT22;10189;49.546;7.906;2024-03-02T12:24:29;11.80;77.00
20057;DHT22;10189;49.546;7.906;2024-03-02T12:26:55;11.90;77.30
20057;DHT22;10189;49.546;7.906;2024-03-02T12:29:22;12.00;77.50
20057;DHT22;10189;49.546;7.906;2024-03-02T12:31:50;12.00;76.40
20057;DHT22;10189;49.546;7.906;2024-03-02T12:34:22;12.00;77.70
20057;DHT22;10189;49.546;7.906;2024-03-02T12:36:49;12.10;76.50
20057;DHT22;10189;49.546;7.906;2024-03-02T12:39:19;12.30;74.10
20057;DHT22;10189;49.546;7.906;2024-03-02T12:41:46;12.40;74.30
20057;DHT22;10189;49.546;7.906;2024-03-02T12:44:13;12.30;72.90
20057;DHT22;10189;49.546;7.906;2024-03-02T12:46:39;12.40;72.40
20057;DHT22;10189;49.546;7.906;2024-03-02T12:49:12;12.50;72.70
20057;DHT22;10189;49.546;7.906;2024-03-02T12:51:40;12.50;71.10
20057;DHT22;10189;49.546;7.906;2024-03-02T12:54:07;12.40;71.70
20057;DHT22;10189;49.546;7.906;2024-03-02T12:56:41;12.20;72.50
20057;DHT22;10189;49.546;7.906;2024-03-02T12:59:26;12.10;72.60
20057;DHT22;10189;49.546;7.906;2024-03-02T13:01:54;12.20;71.10
20057;DHT22;10189;49.546;7.906;2024-03-02T13:04:26;12.50;72.30
20057;DHT22;10189;49.546;7.906;2024-03-02T13:06:54;12.70;69.20
20057;DHT22;10189;49.546;7.906;2024-03-02T13:09:23;12.80;68.00
20057;DHT22;10189;49.546;7.906;2024-03-02T13:11:49;12.80;67.10
20057;DHT22;10189;49.546;7.906;2024-03-02T13:14:18;12.80;66.70
20057;DHT22;10189;49.546;7.906;2024-03-02T13:16:44;12.70;67.40
20057;DHT22;10189;49.546;7.906;2024-03-02T13:19:13;12.70;66.90
20057;DHT22;10189;49.546;7.906;2024-03-02T13:21:39;12.90;66.80
20057;DHT22;10189;49.546;7.906;2024-03-02T13:24:06;13.10;65.40
20057;DHT22;10189;49.546;7.906;2024-03-02T13:26:32;13.20;65.00
20057;DHT22;10189;49.546;7.906;2024-03-02T13:28:58;13.40;64.50
20057;DHT22;10189;49.546;7.906;2024-03-02T13:31:24;13.40;65.20
20057;DHT22;10189;49.546;7.906;2024-03-02T13:33:50;13.50;64.60
20057;DHT22;10189;49.546;7.906;2024-03-02T13:37:04;13.60;65.40
20057;DHT22;10189;49.546;7.906;2024-03-02T13:39:31;13.60;64.80
20057;DHT22;10189;49.546;7.906;2024-03-02T13:41:58;13.60;63.10
20057;DHT22;10189;49.546;7.906;2024-03-02T13:44:34;13.60;63.80
20057;DHT22;10189;49.546;7.906;2024-03-02T13:47:00;13.50;64.50
20057;DHT22;10189;49.546;7.906;2024-03-02T13:49:27;13.50;64.50
20057;DHT22;10189;49.546;7.906;2024-03-02T13:52:05;13.50;65.10
20057;DHT22;10189;49.546;7.906;2024-03-02T13:54:45;13.60;65.30
20057;DHT22;10189;49.546;7.906;2024-03-02T13:57:13;13.60;64.00
20057;DHT22;10189;49.546;7.906;2024-03-02T13:59:45;13.80;64.90
20057;DHT22;10189;49.546;7.906;2024-03-02T14:02:12;14.00;63.60
20057;DHT22;10189;49.546;7.906;2024-03-02T14:04:40;13.90;62.90
20057;DHT22;10189;49.546;7.906;2024-03-02T14:07:07;13.70;63.10
20057;DHT22;10189;49.546;7.906;2024-03-02T14:09:33;13.60;62.60
20057;DHT22;10189;49.546;7.906;2024-03-02T14:12:00;13.50;64.10
20057;DHT22;10189;49.546;7.906;2024-03-02T14:14:26;13.30;63.90
20057;DHT22;10189;49.546;7.906;2024-03-02T14:16:54;13.30;64.50
20057;DHT22;10189;49.546;7.906;2024-03-02T14:19:21;13.20;63.20
20057;DHT22;10189;49.546;7.906;2024-03-02T14:21:47;13.20;64.90
20057;DHT22;10189;49.546;7.906;2024-03-02T14:24:13;13.10;63.50
20057;DHT22;10189;49.546;7.906;2024-03-02T14:26:39;13.00;64.70
20057;DHT22;10189;49.546;7.906;2024-03-02T14:29:11;13.00;65.00
20057;DHT22;10189;49.546;7.906;2024-03-02T14:31:37;13.00;65.50
20057;DHT22;10189;49.546;7.906;2024-03-02T14:34:03;13.10;65.00
20057;DHT22;10189;49.546;7.906;2024-03-02T14:36:29;13.10;65.00
20057;DHT22;10189;49.546;7.906;2024-03-02T14:38:55;13.20;64.20
20057;DHT22;10189;49.546;7.906;2024-03-02T14:41:22;13.20;64.90
20057;DHT22;10189;49.546;7.906;2024-03-02T14:43:50;13.30;66.70
20057;DHT22;10189;49.546;7.906;2024-03-02T14:46:16;13.30;66.70
20057;DHT22;10189;49.546;7.906;2024-03-02T14:48:43;13.40;66.70
20057;DHT22;10189;49.546;7.906;2024-03-02T14:51:11;13.40;66.60
20057;DHT22;10189;49.546;7.906;2024-03-02T14:53:38;13.30;66.60
20057;DHT22;10189;49.546;7.906;2024-03-02T14:56:09;13.20;67.00
20057;DHT22;10189;49.546;7.906;2024-03-02T14:58:44;13.10;67.20
20057;DHT22;10189;49.546;7.906;2024-03-02T15:01:11;13.20;66.50
20057;DHT22;10189;49.546;7.906;2024-03-02T15:03:37;13.20;66.80
20057;DHT22;10189;49.546;7.906;2024-03-02T15:06:03;13.10;67.30
20057;DHT22;10189;49.546;7.906;2024-03-02T15:08:30;13.00;67.00
20057;DHT22;10189;49.546;7.906;2024-03-02T15:10:57;13.00;67.00
20057;DHT22;10189;49.546;7.906;2024-03-02T15:13:25;12.90;67.60
20057;DHT22;10189;49.546;7.906;2024-03-02T15:15:52;12.90;67.60
20057;DHT22;10189;49.546;7.906;2024-03-02T15:18:18;12.80;67.70
20057;DHT22;10189;49.546;7.906;2024-03-02T15:20:44;12.80;67.60
20057;DHT22;10189;49.546;7.906;2024-03-02T15:23:12;12.70;68.10
20057;DHT22;10189;49.546;7.906;2024-03-02T15:25:39;12.70;68.50
20057;DHT22;10189;49.546;7.906;2024-03-02T15:28:05;12.70;67.90
20057;DHT22;10189;49.546;7.906;2024-03-02T15:30:31;12.60;67.60
20057;DHT22;10189;49.546;7.906;2024-03-02T15:32:57;12.60;67.70
20057;DHT22;10189;49.546;7.906;2024-03-02T15:35:23;12.50;68.40
20057;DHT22;10189;49.546;7.906;2024-03-02T15:37:49;12.50;69.00
20057;DHT22;10189;49.546;7.906;2024-03-02T15:40:15;12.40;69.60
20057;DHT22;10189;49.546;7.906;2024-03-02T15:42:41;12.40;69.70
20057;DHT22;10189;49.546;7.906;2024-03-02T15:45:09;12.30;69.70
20057;DHT22;10189;49.546;7.906;2024-03-02T15:47:35;12.30;70.50
20057;DHT22;10189;49.546;7.906;2024-03-02T15:50:02;12.10;71.00
20057;DHT22;10189;49.546;7.906;2024-03-02T15:52:32;12.00;70.60